createdAt,value
2018-05-17T00:00:38.818Z,79.08
2018-05-17T00:03:06.539Z,79.14
2018-05-17T00:05:34.070Z,79.23
2018-05-17T00:08:01.612Z,79.28
2018-05-17T00:10:29.194Z,79.31
2018-05-17T00:12:56.754Z,79.42
2018-05-17T00:15:24.304Z,79.58
2018-05-17T00:17:51.890Z,79.64
2018-05-17T00:20:19.438Z,79.67
2018-05-17T00:22:46.976Z,79.74
2018-05-17T00:25:14.556Z,79.76
2018-05-17T00:27:42.089Z,79.78
2018-05-17T00:30:09.627Z,79.97
2018-05-17T00:32:37.236Z,80.19
2018-05-17T00:35:04.801Z,80.30
2018-05-17T00:37:32.334Z,80.17
2018-05-17T00:39:59.902Z,80.25
2018-05-17T00:42:27.441Z,80.46
2018-05-17T00:44:54.975Z,81.01
2018-05-17T00:47:22.743Z,81.07
2018-05-17T00:49:50.297Z,80.86
2018-05-17T00:52:17.944Z,80.81
2018-05-17T00:54:45.451Z,80.81
2018-05-17T00:57:12.986Z,80.95
2018-05-17T00:59:40.524Z,80.91
2018-05-17T01:02:08.112Z,80.79
2018-05-17T01:04:35.659Z,80.66
2018-05-17T01:07:03.197Z,80.73
2018-05-17T01:09:30.855Z,80.70
2018-05-17T01:11:58.411Z,80.37
2018-05-17T01:14:25.956Z,80.43
2018-05-17T01:16:53.544Z,80.34
2018-05-17T01:19:21.109Z,80.34
2018-05-17T01:21:48.658Z,80.36
2018-05-17T01:24:16.237Z,80.51
2018-05-17T01:26:43.773Z,80.62
2018-05-17T01:29:11.324Z,80.69
2018-05-17T01:31:38.994Z,80.75
2018-05-17T01:34:06.542Z,80.67
2018-05-17T01:36:34.114Z,80.68
2018-05-17T01:39:02.032Z,80.63
2018-05-17T01:41:29.569Z,80.60
2018-05-17T01:43:57.118Z,80.58
2018-05-17T01:46:24.835Z,80.63
2018-05-17T01:48:52.386Z,80.68
2018-05-17T01:51:19.916Z,80.96
2018-05-17T01:53:47.491Z,81.43
2018-05-17T01:56:15.024Z,81.65
2018-05-17T01:58:42.555Z,81.67
2018-05-17T02:01:10.131Z,81.70
2018-05-17T02:03:37.666Z,81.96
2018-05-17T02:06:05.207Z,81.92
2018-05-17T02:08:33.224Z,81.74
2018-05-17T02:11:00.768Z,81.41
2018-05-17T02:13:28.310Z,82.24
2018-05-17T02:15:56.218Z,82.29
2018-05-17T02:18:23.769Z,82.39
2018-05-17T02:20:51.306Z,82.67
2018-05-17T02:23:18.875Z,82.81
2018-05-17T02:25:46.411Z,82.97
2018-05-17T02:28:13.944Z,82.99
2018-05-17T02:30:41.590Z,82.95
2018-05-17T02:33:09.213Z,82.94
2018-05-17T02:35:36.702Z,82.88
2018-05-17T02:38:04.311Z,83.16
2018-05-17T02:40:31.859Z,83.08
2018-05-17T02:42:59.387Z,82.95
2018-05-17T02:45:26.956Z,82.91
2018-05-17T02:47:54.541Z,82.91
2018-05-17T02:50:22.088Z,82.93
2018-05-17T02:52:49.663Z,83.00
2018-05-17T02:55:17.213Z,82.91
2018-05-17T02:57:44.763Z,82.95
2018-05-17T03:00:12.321Z,82.92
2018-05-17T03:02:39.869Z,82.90
2018-05-17T03:05:07.413Z,82.96
2018-05-17T03:07:34.983Z,82.83
2018-05-17T03:10:02.532Z,82.65
2018-05-17T03:12:30.076Z,82.64
2018-05-17T03:14:57.980Z,82.58
2018-05-17T03:17:25.520Z,82.25
2018-05-17T03:19:53.051Z,82.16
2018-05-17T03:22:20.624Z,82.45
2018-05-17T03:24:48.149Z,81.14
2018-05-17T03:27:15.686Z,80.07
2018-05-17T03:29:43.393Z,79.60
2018-05-17T03:32:10.940Z,79.47
2018-05-17T03:34:38.511Z,78.87
2018-05-17T03:37:06.071Z,78.57
2018-05-17T03:39:33.640Z,78.24
2018-05-17T03:42:01.197Z,77.71
2018-05-17T03:44:28.735Z,76.25
2018-05-17T03:46:56.273Z,70.45
2018-05-17T03:49:23.939Z,62.72
2018-05-17T03:51:51.476Z,58.78
2018-05-17T03:54:19.013Z,56.51
2018-05-17T03:56:46.740Z,55.95
2018-05-17T03:59:14.267Z,54.88
2018-05-17T04:01:53.411Z,53.15
2018-05-17T04:04:32.502Z,53.57
2018-05-17T04:07:00.158Z,54.36
2018-05-17T04:09:27.653Z,55.35
2018-05-17T04:11:55.208Z,57.62
2018-05-17T04:14:23.130Z,59.55
2018-05-17T04:16:50.678Z,60.77
2018-05-17T04:19:18.214Z,62.21
2018-05-17T04:21:45.779Z,63.32
2018-05-17T04:24:13.325Z,64.12
2018-05-17T04:26:40.869Z,63.89
2018-05-17T04:29:08.626Z,63.90
2018-05-17T04:31:36.168Z,62.72
2018-05-17T04:34:03.701Z,63.00
2018-05-17T04:36:31.427Z,56.72
2018-05-17T04:38:59.005Z,52.27
2018-05-17T04:41:26.544Z,48.43
2018-05-17T04:43:54.101Z,44.32
2018-05-17T04:46:21.665Z,40.49
2018-05-17T04:48:49.241Z,39.41
2018-05-17T04:51:16.788Z,36.41
2018-05-17T04:53:44.320Z,34.96
2018-05-17T04:56:12.041Z,34.28
2018-05-17T04:58:39.583Z,33.52
2018-05-17T05:01:07.140Z,32.68
2018-05-17T05:03:34.711Z,34.44
2018-05-17T05:06:02.259Z,36.66
2018-05-17T05:08:29.834Z,39.06
2018-05-17T05:10:57.420Z,41.26
2018-05-17T05:13:24.963Z,43.73
2018-05-17T05:15:52.506Z,46.10
2018-05-17T05:18:20.081Z,48.20
2018-05-17T05:20:47.625Z,49.76
2018-05-17T05:23:15.173Z,50.11
2018-05-17T05:25:42.748Z,49.04
2018-05-17T05:28:10.304Z,47.36
2018-05-17T05:30:37.844Z,44.25
2018-05-17T05:33:05.424Z,43.05
2018-05-17T05:35:32.981Z,43.32
2018-05-17T05:38:00.551Z,43.28
2018-05-17T05:40:28.124Z,43.25
2018-05-17T05:42:56.004Z,43.92
2018-05-17T05:45:23.562Z,42.76
2018-05-17T05:47:51.153Z,41.46
2018-05-17T05:50:18.707Z,41.28
2018-05-17T05:52:46.254Z,40.41
2018-05-17T05:55:13.824Z,39.91
2018-05-17T05:57:41.356Z,39.68
2018-05-17T06:00:08.901Z,38.75
2018-05-17T06:02:36.507Z,38.01
2018-05-17T06:05:04.085Z,36.02
2018-05-17T06:07:31.644Z,36.13
2018-05-17T06:09:59.253Z,37.08
2018-05-17T06:12:26.793Z,36.43
2018-05-17T06:14:54.335Z,35.42
2018-05-17T06:17:21.958Z,35.45
2018-05-17T06:19:49.490Z,34.00
2018-05-17T06:22:17.036Z,34.88
2018-05-17T06:24:44.711Z,35.70
2018-05-17T06:27:12.259Z,36.10
2018-05-17T06:29:39.788Z,34.93
2018-05-17T06:32:08.488Z,35.61
2018-05-17T06:34:36.067Z,34.23
2018-05-17T06:37:03.628Z,34.42
2018-05-17T06:39:31.220Z,33.93
2018-05-17T06:41:58.779Z,33.62
2018-05-17T06:44:26.324Z,34.32
2018-05-17T06:46:54.381Z,34.79
2018-05-17T06:49:21.932Z,34.92
2018-05-17T06:51:49.479Z,33.80
2018-05-17T06:54:17.078Z,33.98
2018-05-17T06:56:44.635Z,34.75
2018-05-17T06:59:12.188Z,35.91
2018-05-17T07:01:39.781Z,35.00
2018-05-17T07:04:07.323Z,34.11
2018-05-17T07:06:34.891Z,34.73
2018-05-17T07:09:02.468Z,36.29
2018-05-17T07:11:30.016Z,37.99
2018-05-17T07:13:57.577Z,36.32
2018-05-17T07:16:25.165Z,36.48
2018-05-17T07:18:52.696Z,37.14
2018-05-17T07:21:20.244Z,37.10
2018-05-17T07:23:47.922Z,37.03
2018-05-17T07:26:15.468Z,37.26
2018-05-17T07:28:43.025Z,38.00
2018-05-17T07:31:10.593Z,37.63
2018-05-17T07:33:38.137Z,37.93
2018-05-17T07:36:05.681Z,37.81
2018-05-17T07:38:33.359Z,36.76
2018-05-17T07:41:00.885Z,36.13
2018-05-17T07:43:28.432Z,36.38
2018-05-17T07:45:56.141Z,37.63
2018-05-17T07:48:23.679Z,36.62
2018-05-17T07:50:51.221Z,36.98
2018-05-17T07:53:18.893Z,34.96
2018-05-17T07:55:46.471Z,35.74
2018-05-17T07:58:14.011Z,36.25
2018-05-17T08:00:41.582Z,35.72
2018-05-17T08:03:09.121Z,36.38
2018-05-17T08:05:36.664Z,36.27
2018-05-17T08:08:04.299Z,36.72
2018-05-17T08:10:31.831Z,35.13
2018-05-17T08:12:59.394Z,35.71
2018-05-17T08:15:27.131Z,37.38
2018-05-17T08:17:54.703Z,36.98
2018-05-17T08:20:22.258Z,36.22
2018-05-17T08:22:49.991Z,35.58
2018-05-17T08:25:17.527Z,36.40
2018-05-17T08:27:45.069Z,37.16
2018-05-17T08:30:12.647Z,38.75
2018-05-17T08:32:40.192Z,37.69
2018-05-17T08:35:07.737Z,38.77
2018-05-17T08:37:35.312Z,35.52
2018-05-17T08:40:02.880Z,37.52
2018-05-17T08:42:30.530Z,38.67
2018-05-17T08:44:58.007Z,37.14
2018-05-17T08:47:25.555Z,37.54
2018-05-17T08:49:53.120Z,37.84
2018-05-17T08:52:20.657Z,37.61
2018-05-17T08:54:48.186Z,38.75
2018-05-17T08:57:16.074Z,39.57
2018-05-17T08:59:43.696Z,38.20
2018-05-17T09:02:11.177Z,38.46
2018-05-17T09:04:38.852Z,39.39
2018-05-17T09:07:07.341Z,39.44
2018-05-17T09:09:34.902Z,40.30
2018-05-17T09:12:02.472Z,39.73
2018-05-17T09:14:30.018Z,38.83
2018-05-17T09:16:57.564Z,39.99
2018-05-17T09:19:25.259Z,39.00
2018-05-17T09:21:52.818Z,38.83
2018-05-17T09:24:20.358Z,39.14
2018-05-17T09:26:47.956Z,37.10
2018-05-17T09:29:15.586Z,38.60
2018-05-17T09:31:43.068Z,37.43
2018-05-17T09:34:10.637Z,38.15
2018-05-17T09:36:38.172Z,39.30
2018-05-17T09:39:06.548Z,38.92
2018-05-17T09:41:34.304Z,37.69
2018-05-17T09:44:01.864Z,39.38
2018-05-17T09:46:29.401Z,39.19
2018-05-17T09:48:57.325Z,37.43
2018-05-17T09:51:24.876Z,37.77
2018-05-17T09:53:52.412Z,38.24
2018-05-17T09:56:20.315Z,37.22
2018-05-17T09:58:47.871Z,37.45
2018-05-17T10:01:15.398Z,35.62
2018-05-17T10:03:42.967Z,37.89
2018-05-17T10:06:10.515Z,34.00
2018-05-17T10:08:38.048Z,36.17
2018-05-17T10:11:05.766Z,36.65
2018-05-17T10:13:33.313Z,37.05
2018-05-17T10:16:00.855Z,35.97
2018-05-17T10:18:28.585Z,35.16
2018-05-17T10:20:56.123Z,34.80
2018-05-17T10:23:23.659Z,34.03
2018-05-17T10:25:51.458Z,34.23
2018-05-17T10:28:19.001Z,35.55
2018-05-17T10:30:46.557Z,33.72
2018-05-17T10:33:14.205Z,34.67
2018-05-17T10:35:41.768Z,35.96
2018-05-17T10:38:09.321Z,36.98
2018-05-17T10:40:38.147Z,35.55
2018-05-17T10:43:05.706Z,34.84
2018-05-17T10:45:33.243Z,34.91
2018-05-17T10:48:00.815Z,36.06
2018-05-17T10:50:28.353Z,34.69
2018-05-17T10:52:55.889Z,34.44
2018-05-17T10:55:23.478Z,34.95
2018-05-17T10:57:51.027Z,34.27
2018-05-17T11:00:18.588Z,34.38
2018-05-17T11:02:46.180Z,32.27
2018-05-17T11:05:13.729Z,33.31
2018-05-17T11:07:41.269Z,32.92
2018-05-17T11:10:08.836Z,29.96
2018-05-17T11:12:36.370Z,31.85
2018-05-17T11:15:03.950Z,30.49
2018-05-17T11:17:31.844Z,28.75
2018-05-17T11:19:59.396Z,26.69
2018-05-17T11:22:26.942Z,29.86
2018-05-17T11:24:54.663Z,31.63
2018-05-17T11:27:22.208Z,27.73
2018-05-17T11:29:49.759Z,27.02
2018-05-17T11:32:17.337Z,31.85
2018-05-17T11:34:44.887Z,30.42
2018-05-17T11:37:12.434Z,29.67
2018-05-17T11:39:40.012Z,28.58
2018-05-17T11:42:07.557Z,30.26
2018-05-17T11:44:35.094Z,27.91
2018-05-17T11:47:02.668Z,30.71
2018-05-17T11:49:30.216Z,32.07
2018-05-17T11:51:57.747Z,33.85
2018-05-17T11:54:25.571Z,34.33
2018-05-17T11:56:53.121Z,35.03
2018-05-17T11:59:20.676Z,33.52
2018-05-17T12:01:48.401Z,34.90
2018-05-17T12:04:15.956Z,35.82
2018-05-17T12:06:43.500Z,35.35
2018-05-17T12:09:11.072Z,36.24
2018-05-17T12:11:38.614Z,35.27
2018-05-17T12:14:06.163Z,36.32
2018-05-17T12:16:33.749Z,35.45
2018-05-17T12:19:01.309Z,35.44
2018-05-17T12:21:28.899Z,33.93
2018-05-17T12:23:56.584Z,34.30
2018-05-17T12:26:24.132Z,30.62
2018-05-17T12:28:51.679Z,30.06
2018-05-17T12:31:19.603Z,29.54
2018-05-17T12:33:47.173Z,31.19
2018-05-17T12:36:14.707Z,30.79
2018-05-17T12:38:42.456Z,32.37
2018-05-17T12:41:10.018Z,34.51
2018-05-17T12:43:37.555Z,34.83
2018-05-17T12:46:05.191Z,34.07
2018-05-17T12:48:32.735Z,34.78
2018-05-17T12:51:00.293Z,35.34
2018-05-17T12:53:28.611Z,35.62
2018-05-17T12:55:56.150Z,35.10
2018-05-17T12:58:23.712Z,34.84
2018-05-17T13:00:51.604Z,34.96
2018-05-17T13:03:19.160Z,33.70
2018-05-17T13:05:46.755Z,33.71
2018-05-17T13:08:14.316Z,34.46
2018-05-17T13:10:41.865Z,36.18
2018-05-17T13:13:09.415Z,34.28
2018-05-17T13:15:37.120Z,33.95
2018-05-17T13:18:04.687Z,35.07
2018-05-17T13:20:32.255Z,35.97
2018-05-17T13:22:59.868Z,36.36
2018-05-17T13:25:27.433Z,36.24
2018-05-17T13:27:54.979Z,35.84
2018-05-17T13:30:22.751Z,35.66
2018-05-17T13:32:50.269Z,35.80
2018-05-17T13:35:17.812Z,35.67
2018-05-17T13:37:45.401Z,35.93
2018-05-17T13:40:12.946Z,34.99
2018-05-17T13:42:40.712Z,33.38
2018-05-17T13:45:08.260Z,33.25
2018-05-17T13:47:35.812Z,33.88
2018-05-17T13:50:03.593Z,33.61
2018-05-17T13:52:31.152Z,34.43
2018-05-17T13:54:58.696Z,34.61
2018-05-17T13:57:26.360Z,34.66
2018-05-17T13:59:53.936Z,35.59
2018-05-17T14:02:22.542Z,35.71
2018-05-17T14:04:50.124Z,35.82
2018-05-17T14:07:17.665Z,34.01
2018-05-17T14:09:45.253Z,34.89
2018-05-17T14:12:13.147Z,35.92
2018-05-17T14:14:40.688Z,34.18
2018-05-17T14:17:08.231Z,32.87
2018-05-17T14:19:35.833Z,33.53
2018-05-17T14:22:03.418Z,34.18
2018-05-17T14:24:30.961Z,34.47
2018-05-17T14:26:58.537Z,32.53
2018-05-17T14:29:26.097Z,32.60
2018-05-17T14:31:53.637Z,32.13
2018-05-17T14:34:23.176Z,33.23
2018-05-17T14:36:50.758Z,32.53
2018-05-17T14:39:18.321Z,32.92
2018-05-17T14:41:46.205Z,31.43
2018-05-17T14:44:13.760Z,31.90
2018-05-17T14:46:41.301Z,31.40
2018-05-17T14:49:08.871Z,33.29
2018-05-17T14:51:36.418Z,31.47
2018-05-17T14:54:04.008Z,31.25
2018-05-17T14:56:31.629Z,31.35
2018-05-17T14:58:59.188Z,31.77
2018-05-17T15:01:26.745Z,31.56
2018-05-17T15:03:54.331Z,30.41
2018-05-17T15:06:21.892Z,29.42
2018-05-17T15:08:49.457Z,30.41
2018-05-17T15:11:17.169Z,31.07
2018-05-17T15:13:44.729Z,31.28
2018-05-17T15:16:12.272Z,31.22
2018-05-17T15:18:40.080Z,31.46
2018-05-17T15:21:07.661Z,30.23
2018-05-17T15:23:35.208Z,30.54
2018-05-17T15:26:02.940Z,31.47
2018-05-17T15:28:30.509Z,30.91
2018-05-17T15:30:58.112Z,31.68
2018-05-17T15:33:25.837Z,31.84
2018-05-17T15:35:53.384Z,30.94
2018-05-17T15:38:20.956Z,30.32
2018-05-17T15:40:48.691Z,31.24
2018-05-17T15:43:16.244Z,30.45
2018-05-17T15:45:43.795Z,30.66
2018-05-17T15:48:11.561Z,31.74
2018-05-17T15:50:39.086Z,31.23
2018-05-17T15:53:06.641Z,31.55
2018-05-17T15:55:34.251Z,31.73
2018-05-17T15:58:01.794Z,32.11
2018-05-17T16:00:29.346Z,31.56
2018-05-17T16:02:58.212Z,31.75
2018-05-17T16:05:25.751Z,31.88
2018-05-17T16:07:53.317Z,30.99
2018-05-17T16:10:20.899Z,32.39
2018-05-17T16:12:48.464Z,32.04
2018-05-17T16:15:16.159Z,32.44
2018-05-17T16:17:43.649Z,31.73
2018-05-17T16:20:11.212Z,32.23
2018-05-17T16:22:38.776Z,32.58
2018-05-17T16:25:06.544Z,32.61
2018-05-17T16:27:34.101Z,33.58
2018-05-17T16:30:01.656Z,34.43
2018-05-17T16:32:29.569Z,33.93
2018-05-17T16:34:57.126Z,34.04
2018-05-17T16:37:24.696Z,35.07
2018-05-17T16:39:52.272Z,35.06
2018-05-17T16:42:19.828Z,36.61
2018-05-17T16:44:47.372Z,35.95
2018-05-17T16:47:14.942Z,36.80
2018-05-17T16:49:42.486Z,37.10
2018-05-17T16:52:10.050Z,38.40
2018-05-17T16:54:37.762Z,39.37
2018-05-17T16:57:05.316Z,39.67
2018-05-17T16:59:32.859Z,40.03
2018-05-17T17:02:00.577Z,41.09
2018-05-17T17:04:28.123Z,41.53
2018-05-17T17:06:55.702Z,42.29
2018-05-17T17:09:23.729Z,42.69
2018-05-17T17:11:51.283Z,42.80
2018-05-17T17:14:18.834Z,43.16
2018-05-17T17:16:46.537Z,43.45
2018-05-17T17:19:14.077Z,43.75
2018-05-17T17:21:41.621Z,44.12
2018-05-17T17:24:09.186Z,44.46
2018-05-17T17:26:36.715Z,44.58
2018-05-17T17:29:04.253Z,45.01
2018-05-17T17:31:31.853Z,44.86
2018-05-17T17:33:59.407Z,45.43
2018-05-17T17:36:26.972Z,45.52
2018-05-17T17:38:54.668Z,45.67
2018-05-17T17:41:22.203Z,46.17
2018-05-17T17:43:49.743Z,46.41
2018-05-17T17:46:17.675Z,46.53
2018-05-17T17:48:45.227Z,46.71
2018-05-17T17:51:12.771Z,46.78
2018-05-17T17:53:40.495Z,46.85
2018-05-17T17:56:08.045Z,47.00
2018-05-17T17:58:35.609Z,47.24
2018-05-17T18:01:03.362Z,47.61
2018-05-17T18:03:30.920Z,47.84
2018-05-17T18:05:58.454Z,47.85
2018-05-17T18:08:26.042Z,48.04
2018-05-17T18:10:53.584Z,48.07
2018-05-17T18:13:21.157Z,48.21
2018-05-17T18:15:48.779Z,48.55
2018-05-17T18:18:16.330Z,48.75
2018-05-17T18:20:43.863Z,48.91
2018-05-17T18:23:11.590Z,49.06
2018-05-17T18:25:39.136Z,49.20
2018-05-17T18:28:06.679Z,49.28
2018-05-17T18:30:34.260Z,49.34
2018-05-17T18:33:01.833Z,49.57
2018-05-17T18:35:29.425Z,49.87
2018-05-17T18:37:57.182Z,49.98
2018-05-17T18:40:24.754Z,50.05
2018-05-17T18:42:52.325Z,50.26
2018-05-17T18:45:19.874Z,50.50
2018-05-17T18:47:47.450Z,50.62
2018-05-17T18:50:15.196Z,50.01
2018-05-17T18:52:42.747Z,50.07
2018-05-17T18:55:10.346Z,49.20
2018-05-17T18:57:38.011Z,49.28
2018-05-17T19:00:05.586Z,50.02
2018-05-17T19:02:33.171Z,50.60
2018-05-17T19:05:00.770Z,51.20
2018-05-17T19:07:28.342Z,50.97
2018-05-17T19:09:55.885Z,49.85
2018-05-17T19:12:23.880Z,50.72
2018-05-17T19:14:51.435Z,51.75
2018-05-17T19:17:18.981Z,52.92
2018-05-17T19:19:46.609Z,53.13
2018-05-17T19:22:14.210Z,53.12
2018-05-17T19:24:41.803Z,53.27
2018-05-17T19:27:09.441Z,53.34
2018-05-17T19:29:36.997Z,53.61
2018-05-17T19:32:04.562Z,53.50
2018-05-17T19:34:32.245Z,53.69
2018-05-17T19:36:59.836Z,53.82
2018-05-17T19:39:27.365Z,53.96
2018-05-17T19:41:54.984Z,54.57
2018-05-17T19:44:22.577Z,54.63
2018-05-17T19:46:50.119Z,54.83
2018-05-17T19:49:17.737Z,54.99
2018-05-17T19:51:45.295Z,55.28
2018-05-17T19:54:12.848Z,55.62
2018-05-17T19:56:40.594Z,56.08
2018-05-17T19:59:08.141Z,56.18
2018-05-17T20:01:35.716Z,55.99
2018-05-17T20:04:03.339Z,55.80
2018-05-17T20:06:31.002Z,55.85
2018-05-17T20:08:58.539Z,56.20
2018-05-17T20:11:26.183Z,56.32
2018-05-17T20:13:53.667Z,56.32
2018-05-17T20:16:21.216Z,56.41
2018-05-17T20:18:48.995Z,56.67
2018-05-17T20:21:16.588Z,56.75
2018-05-17T20:23:44.181Z,57.18
2018-05-17T20:26:11.765Z,57.48
2018-05-17T20:28:39.303Z,57.87
2018-05-17T20:31:06.847Z,57.95
2018-05-17T20:33:34.791Z,58.15
2018-05-17T20:36:02.357Z,58.33
2018-05-17T20:38:29.913Z,58.46
2018-05-17T20:40:57.512Z,58.69
2018-05-17T20:43:25.081Z,59.06
2018-05-17T20:45:52.660Z,59.46
2018-05-17T20:48:20.406Z,60.16
2018-05-17T20:50:47.964Z,60.46
2018-05-17T20:53:15.531Z,60.64
2018-05-17T20:55:43.111Z,61.09
2018-05-17T20:58:10.657Z,61.28
2018-05-17T21:00:38.232Z,61.58
2018-05-17T21:03:05.924Z,62.03
2018-05-17T21:05:33.468Z,62.23
2018-05-17T21:08:01.004Z,62.50
2018-05-17T21:10:28.586Z,62.82
2018-05-17T21:12:56.136Z,62.77
2018-05-17T21:15:23.676Z,62.84
2018-05-17T21:17:51.446Z,63.10
2018-05-17T21:20:18.997Z,63.07
2018-05-17T21:22:46.544Z,63.09
2018-05-17T21:25:14.122Z,63.15
2018-05-17T21:27:41.672Z,63.14
2018-05-17T21:30:09.255Z,63.37
2018-05-17T21:32:36.844Z,63.51
2018-05-17T21:35:04.392Z,63.58
2018-05-17T21:37:31.944Z,63.96
2018-05-17T21:39:59.862Z,64.06
2018-05-17T21:42:27.414Z,64.03
2018-05-17T21:44:54.986Z,64.00
2018-05-17T21:47:22.605Z,64.04
2018-05-17T21:49:50.144Z,64.00
2018-05-17T21:52:17.706Z,64.08
2018-05-17T21:54:45.276Z,64.24
2018-05-17T21:57:12.859Z,64.32
2018-05-17T21:59:40.412Z,64.29
2018-05-17T22:02:07.977Z,64.49
2018-05-17T22:04:35.534Z,64.82
2018-05-17T22:07:03.084Z,64.68
2018-05-17T22:09:30.671Z,64.66
2018-05-17T22:11:58.215Z,64.75
2018-05-17T22:14:25.803Z,64.72
2018-05-17T22:16:53.357Z,64.71
2018-05-17T22:19:20.908Z,64.83
2018-05-17T22:21:48.450Z,64.99
2018-05-17T22:24:16.023Z,65.22
2018-05-17T22:26:43.562Z,65.19
2018-05-17T22:29:11.185Z,65.16
2018-05-17T22:31:39.006Z,65.16
2018-05-17T22:34:07.054Z,65.23
2018-05-17T22:36:34.592Z,65.25
2018-05-17T22:39:02.179Z,65.50
2018-05-17T22:41:29.719Z,66.10
2018-05-17T22:43:57.259Z,66.57
2018-05-17T22:46:24.827Z,66.54
2018-05-17T22:48:53.295Z,66.66
2018-05-17T22:51:20.892Z,66.82
2018-05-17T22:53:48.445Z,66.78
2018-05-17T22:56:27.901Z,66.75
2018-05-17T22:58:55.504Z,66.94
2018-05-17T23:01:23.045Z,67.37
2018-05-17T23:03:50.912Z,67.58
2018-05-17T23:06:18.473Z,67.56
2018-05-17T23:08:46.015Z,67.60
2018-05-17T23:11:13.607Z,67.65
2018-05-17T23:13:41.159Z,67.89
2018-05-17T23:16:08.704Z,68.08
2018-05-17T23:18:36.299Z,68.22
2018-05-17T23:21:03.836Z,68.50
2018-05-17T23:23:31.396Z,69.02
2018-05-17T23:25:58.964Z,69.20
2018-05-17T23:28:26.523Z,69.29
2018-05-17T23:30:54.084Z,69.30
2018-05-17T23:33:21.651Z,69.37
2018-05-17T23:35:49.231Z,69.54
2018-05-17T23:38:16.776Z,69.77
2018-05-17T23:43:49.266Z,69.82
2018-05-17T23:46:17.171Z,69.78
2018-05-17T23:48:44.720Z,69.83
2018-05-17T23:51:12.273Z,70.05
2018-05-17T23:53:40.024Z,70.42
2018-05-17T23:56:07.557Z,70.48
2018-05-17T23:58:35.120Z,70.51
